Time;durP1;ratioP1;P1;durP2;ratioP2;P2;SDS_P1;SDS_P2;PMS_P1;PMS_P2;Temp;Humidity;BMP_temperature;BMP_pressure;BME280_temperature;BME280_humidity;BME280_pressure;Samples;Min_cycle;Max_cycle;Signal;HPM_P1;HPM_P2
2021/10/12 00:00:58;;;;;;;9.63;2.05;;;;;;;8.72;70.98;101345.59;4984932;28;20606;-49
2021/10/12 00:03:25;;;;;;;14.40;2.97;;;;;;;8.73;70.52;101347.38;4988760;28;20053;-50
2021/10/12 00:05:52;;;;;;;10.13;2.53;;;;;;;8.73;70.45;101352.53;4986137;28;20434;-50
2021/10/12 00:08:20;;;;;;;8.32;2.45;;;;;;;8.75;72.17;101360.31;4984625;28;20086;-49
2021/10/12 00:10:48;;;;;;;10.93;2.53;;;;;;;8.74;70.93;101358.56;4986169;28;20129;-50
2021/10/12 00:13:16;;;;;;;9.98;3.08;;;;;;;8.73;70.71;101362.88;4991479;28;20046;-49
2021/10/12 00:15:45;;;;;;;8.30;2.05;;;;;;;8.72;71.69;101355.94;4991805;28;20552;-52
2021/10/12 00:18:13;;;;;;;10.30;2.33;;;;;;;8.70;70.68;101357.63;4991664;28;20090;-49
2021/10/12 00:20:42;;;;;;;11.05;3.13;;;;;;;8.67;72.37;101361.81;4993604;28;20097;-49
2021/10/12 00:23:09;;;;;;;10.00;2.53;;;;;;;8.65;71.24;101369.50;4992243;28;20054;-51
2021/10/12 00:25:37;;;;;;;11.38;2.63;;;;;;;8.65;72.33;101359.19;4994597;28;20093;-51
2021/10/12 00:28:03;;;;;;;10.00;3.13;;;;;;;8.64;71.39;101362.59;4993727;28;20054;-53
2021/10/12 00:30:30;;;;;;;13.65;2.88;;;;;;;8.62;71.57;101359.13;4990725;28;20490;-50
2021/10/12 00:32:57;;;;;;;10.20;2.80;;;;;;;8.65;72.47;101356.59;4989436;28;20046;-52
2021/10/12 00:35:23;;;;;;;9.05;2.75;;;;;;;8.64;72.55;101356.59;4989669;28;20117;-50
2021/10/12 00:37:50;;;;;;;11.35;3.25;;;;;;;8.63;72.17;101366.03;4987838;28;20208;-52
2021/10/12 00:40:17;;;;;;;7.95;1.95;;;;;;;8.64;72.43;101367.78;4990395;28;20059;-49
2021/10/12 00:42:43;;;;;;;9.45;1.67;;;;;;;8.64;72.60;101364.34;4991133;28;20050;-49
2021/10/12 00:45:11;;;;;;;7.05;2.05;;;;;;;8.65;72.06;101364.34;4989143;28;20518;-49
2021/10/12 00:47:39;;;;;;;5.55;1.85;;;;;;;8.64;71.73;101367.78;4987615;28;20051;-50
2021/10/12 00:50:07;;;;;;;10.95;2.10;;;;;;;8.63;72.79;101365.16;4989315;28;20522;-49
2021/10/12 00:52:35;;;;;;;10.98;2.05;;;;;;;8.63;72.50;101366.03;4991698;28;20109;-49
2021/10/12 00:55:02;;;;;;;8.38;1.63;;;;;;;8.64;72.73;101367.78;4989242;28;20042;-52
2021/10/12 00:57:29;;;;;;;10.60;2.10;;;;;;;8.64;71.73;101352.28;4985978;28;20073;-48
2021/10/12 00:59:56;;;;;;;9.32;2.30;;;;;;;8.63;72.55;101347.94;4991127;28;20453;-51
2021/10/12 01:02:22;;;;;;;8.35;1.92;;;;;;;8.64;73.02;101344.53;4991115;28;20054;-48
2021/10/12 01:04:49;;;;;;;9.60;1.80;;;;;;;8.63;72.49;101350.53;4988920;28;20047;-49
2021/10/12 01:07:16;;;;;;;7.35;1.60;;;;;;;8.64;71.56;101347.09;4987887;28;20046;-50
2021/10/12 01:09:43;;;;;;;7.63;2.00;;;;;;;8.64;72.40;101331.59;4992034;28;20061;-52
2021/10/12 01:12:10;;;;;;;7.88;2.17;;;;;;;8.65;73.03;101332.50;4989671;28;20066;-49
2021/10/12 01:14:36;;;;;;;9.85;2.08;;;;;;;8.67;71.50;101342.03;4988800;28;20066;-51
2021/10/12 01:17:03;;;;;;;9.52;1.92;;;;;;;8.69;72.64;101337.78;4992854;28;20302;-49
2021/10/12 01:19:29;;;;;;;9.88;2.17;;;;;;;8.69;72.80;101345.53;4999394;28;20133;-51
2021/10/12 01:21:56;;;;;;;10.25;1.65;;;;;;;8.70;72.22;101346.41;4992853;28;20100;-50
2021/10/12 01:24:23;;;;;;;12.57;2.22;;;;;;;8.68;71.70;101341.19;4987485;28;20117;-50
2021/10/12 01:26:49;;;;;;;7.75;2.22;;;;;;;8.67;72.37;101336.88;4996264;28;20420;-53
2021/10/12 01:29:16;;;;;;;8.90;2.17;;;;;;;8.65;71.21;101323.03;4987977;28;20081;-49
2021/10/12 01:31:43;;;;;;;7.93;2.00;;;;;;;8.63;71.73;101324.72;4995451;28;20080;-52
2021/10/12 01:34:12;;;;;;;8.02;2.05;;;;;;;8.61;72.59;101321.19;4989128;28;20053;-49
2021/10/12 01:36:39;;;;;;;7.35;2.47;;;;;;;8.61;71.58;101322.06;4988759;28;20055;-52
2021/10/12 01:39:06;;;;;;;14.13;2.38;;;;;;;8.61;72.96;101321.19;4989440;28;20679;-50
2021/10/12 01:41:32;;;;;;;8.75;2.13;;;;;;;8.64;72.51;101308.38;4989570;28;20101;-49
2021/10/12 01:43:59;;;;;;;13.32;2.65;;;;;;;8.67;71.93;101311.03;4985828;28;20101;-49
2021/10/12 01:46:26;;;;;;;10.02;2.63;;;;;;;8.69;72.72;101305.91;4991330;28;20105;-49
2021/10/12 01:48:53;;;;;;;10.18;2.40;;;;;;;8.70;72.50;101300.78;4987894;28;20042;-50
2021/10/12 01:51:20;;;;;;;7.10;2.63;;;;;;;8.74;72.61;101307.78;4996959;28;20109;-49
2021/10/12 01:53:47;;;;;;;15.93;2.78;;;;;;;8.76;72.83;101299.19;4999588;28;20050;-49
2021/10/12 01:56:13;;;;;;;10.23;2.55;;;;;;;8.79;73.60;101294.09;4991463;28;20096;-48
2021/10/12 01:58:40;;;;;;;12.80;2.60;;;;;;;8.81;73.38;101292.44;4991247;28;20057;-48
2021/10/12 02:01:07;;;;;;;14.65;3.08;;;;;;;8.82;73.70;101289.00;4990107;28;20050;-50
2021/10/12 02:03:33;;;;;;;11.85;3.70;;;;;;;8.84;72.96;101292.50;4998775;28;20069;-49
2021/10/12 02:06:00;;;;;;;10.73;2.75;;;;;;;8.83;73.74;101281.31;4990070;28;20100;-52
2021/10/12 02:08:27;;;;;;;18.00;2.83;;;;;;;8.84;73.92;101277.00;4988291;28;20105;-51
2021/10/12 02:10:53;;;;;;;15.10;2.63;;;;;;;8.85;74.35;101273.59;4987674;28;20046;-52
2021/10/12 02:13:20;;;;;;;16.92;3.08;;;;;;;8.91;74.17;101278.88;4986007;28;20046;-52
2021/10/12 02:15:46;;;;;;;11.45;2.53;;;;;;;8.92;73.01;101280.63;4989654;28;20050;-51
2021/10/12 02:18:13;;;;;;;5.57;1.90;;;;;;;8.95;73.42;101279.84;4988363;28;20062;-52
2021/10/12 02:20:39;;;;;;;10.32;1.90;;;;;;;8.97;73.14;101268.72;4994208;28;20102;-49
2021/10/12 02:23:06;;;;;;;13.73;2.80;;;;;;;8.99;74.04;101267.00;4989222;28;20128;-49
2021/10/12 02:25:33;;;;;;;9.30;2.63;;;;;;;9.00;74.26;101263.63;4987302;28;20074;-53
2021/10/12 02:28:00;;;;;;;14.00;2.92;;;;;;;9.01;73.37;101251.56;4986095;28;20068;-53
2021/10/12 02:30:26;;;;;;;10.55;2.83;;;;;;;9.04;74.49;101258.50;4993031;28;20124;-49
2021/10/12 02:32:53;;;;;;;10.73;2.70;;;;;;;9.05;73.80;101253.38;4987811;28;20058;-49
2021/10/12 02:35:20;;;;;;;9.35;2.45;;;;;;;9.08;74.06;101245.69;4989495;28;20062;-52
2021/10/12 02:37:46;;;;;;;8.40;2.85;;;;;;;9.07;74.44;101243.06;4988583;28;20594;-51
2021/10/12 02:40:13;;;;;;;8.13;2.08;;;;;;;9.08;73.57;101245.69;4992506;28;20064;-49
2021/10/12 02:42:39;;;;;;;12.93;3.13;;;;;;;9.08;73.54;101244.81;4993127;28;20462;-49
2021/10/12 02:45:07;;;;;;;10.10;2.38;;;;;;;9.08;74.63;101243.09;4990528;28;20113;-50
2021/10/12 02:47:34;;;;;;;15.20;2.42;;;;;;;9.10;74.19;101243.16;4993191;28;20046;-48
2021/10/12 02:50:02;;;;;;;12.02;1.95;;;;;;;9.11;74.02;101239.72;4987812;28;20085;-52
2021/10/12 02:52:29;;;;;;;9.50;2.08;;;;;;;9.10;73.19;101245.72;4986598;28;20101;-50
2021/10/12 02:54:56;;;;;;;10.90;2.03;;;;;;;9.12;73.59;101236.31;4989494;28;20046;-49
2021/10/12 02:57:23;;;;;;;12.35;2.45;;;;;;;9.12;74.34;101236.31;4991841;28;20061;-49
2021/10/12 02:59:50;;;;;;;14.38;3.22;;;;;;;9.13;73.47;101232.88;4993535;28;20046;-51
2021/10/12 03:02:16;;;;;;;10.38;2.75;;;;;;;9.14;74.60;101221.69;4988464;28;20050;-50
2021/10/12 03:04:43;;;;;;;11.55;2.78;;;;;;;9.17;74.20;101224.34;4988392;28;21117;-50
2021/10/12 03:07:11;;;;;;;13.05;2.35;;;;;;;9.17;74.12;101219.19;4988847;28;20116;-50
2021/10/12 03:09:37;;;;;;;13.60;2.60;;;;;;;9.17;74.32;101214.00;4985191;28;20104;-50
2021/10/12 03:12:05;;;;;;;12.23;2.20;;;;;;;9.16;73.50;101207.09;4987874;28;20122;-51
2021/10/12 03:14:32;;;;;;;10.80;2.85;;;;;;;9.19;73.29;101201.13;4992572;28;20054;-52
2021/10/12 03:16:59;;;;;;;10.43;2.10;;;;;;;9.19;73.49;101201.97;4992326;28;20050;-52
2021/10/12 03:19:26;;;;;;;9.68;2.17;;;;;;;9.17;73.50;101198.50;4988382;28;20178;-50
2021/10/12 03:21:56;;;;;;;12.88;3.22;;;;;;;9.18;73.85;101204.56;4987586;28;20059;-49
2021/10/12 03:24:23;;;;;;;9.65;2.15;;;;;;;9.19;73.82;101196.81;4985627;28;20066;-49
2021/10/12 03:26:49;;;;;;;17.35;3.08;;;;;;;9.19;73.85;101201.97;4990176;28;20050;-50
2021/10/12 03:29:16;;;;;;;9.25;2.35;;;;;;;9.19;73.36;101207.16;4985693;28;20486;-49
2021/10/12 03:31:43;;;;;;;12.50;2.58;;;;;;;9.18;73.27;101210.59;4988698;28;20051;-53
2021/10/12 03:34:09;;;;;;;5.65;2.80;;;;;;;9.18;74.13;101210.59;4984331;28;20101;-53
2021/10/12 03:36:36;;;;;;;12.32;2.30;;;;;;;9.16;72.84;101199.34;4992318;28;20054;-52
2021/10/12 03:39:03;;;;;;;6.55;1.90;;;;;;;9.13;74.00;101199.28;4985529;28;20042;-49
2021/10/12 03:41:29;;;;;;;8.45;2.00;;;;;;;9.13;73.72;101207.03;4986331;28;20097;-49
2021/10/12 03:43:56;;;;;;;8.98;2.60;;;;;;;9.12;73.87;101200.13;4992954;28;20120;-52
2021/10/12 03:46:23;;;;;;;10.10;2.40;;;;;;;9.11;73.24;101198.34;4989740;28;20112;-51
2021/10/12 03:48:50;;;;;;;8.88;2.30;;;;;;;9.11;73.47;101195.78;4999412;28;20402;-50
2021/10/12 03:51:16;;;;;;;9.88;2.38;;;;;;;9.10;74.47;101196.63;4992895;28;20582;-49
2021/10/12 03:53:43;;;;;;;11.80;2.53;;;;;;;9.10;73.71;101188.88;4991615;28;20046;-49
2021/10/12 03:56:09;;;;;;;9.50;2.38;;;;;;;9.08;73.20;101182.78;4994847;28;20050;-50
2021/10/12 03:58:36;;;;;;;15.80;2.60;;;;;;;9.05;73.06;101180.16;4994236;28;20042;-50
2021/10/12 04:01:03;;;;;;;7.93;2.25;;;;;;;9.03;73.21;101181.81;4992090;28;20081;-49
2021/10/12 04:03:29;;;;;;;11.80;2.40;;;;;;;9.03;73.59;101171.47;4992668;28;20046;-49
2021/10/12 04:05:56;;;;;;;8.48;2.35;;;;;;;9.00;74.16;101164.53;4995112;28;20050;-50
2021/10/12 04:08:23;;;;;;;9.57;2.00;;;;;;;9.02;73.68;101172.31;4987567;28;20469;-49
2021/10/12 04:10:49;;;;;;;8.07;2.35;;;;;;;8.99;73.74;101171.41;4996372;28;20100;-51
2021/10/12 04:13:16;;;;;;;11.10;2.08;;;;;;;8.96;73.62;101171.38;4992627;28;20057;-50
2021/10/12 04:15:42;;;;;;;8.25;1.98;;;;;;;8.94;73.98;101173.03;4994543;28;20112;-49
2021/10/12 04:18:10;;;;;;;10.45;2.30;;;;;;;8.95;73.20;101171.31;4989988;28;20042;-49
2021/10/12 04:20:37;;;;;;;9.02;2.25;;;;;;;8.95;73.15;101177.34;4994922;28;20050;-49
2021/10/12 04:23:07;;;;;;;11.82;2.25;;;;;;;8.94;73.48;101179.88;4987519;28;20054;-49
2021/10/12 04:25:35;;;;;;;8.68;2.28;;;;;;;8.92;74.45;101176.41;4995885;28;20042;-49
2021/10/12 04:28:04;;;;;;;11.10;2.47;;;;;;;8.92;73.26;101177.28;4993392;28;20050;-49
2021/10/12 04:30:31;;;;;;;7.88;2.00;;;;;;;8.93;74.12;101168.69;4992277;28;21577;-50
2021/10/12 04:32:57;;;;;;;9.88;2.88;;;;;;;8.92;73.67;101166.94;4988146;28;20100;-50
2021/10/12 04:35:24;;;;;;;9.23;2.22;;;;;;;8.94;73.75;101154.06;4987569;28;21878;-51
2021/10/12 04:37:51;;;;;;;7.65;2.00;;;;;;;8.94;73.75;101143.72;4991013;28;20498;-49
2021/10/12 04:40:17;;;;;;;10.73;2.33;;;;;;;8.95;74.28;101130.84;4988344;28;20101;-49
2021/10/12 04:42:44;;;;;;;8.25;2.25;;;;;;;8.95;74.14;101129.97;4991197;28;20062;-49
2021/10/12 04:45:11;;;;;;;12.25;2.33;;;;;;;8.94;74.17;101123.94;4994546;28;20104;-48
2021/10/12 04:47:39;;;;;;;17.08;2.70;;;;;;;8.95;73.71;101120.50;4996777;28;20101;-49
2021/10/12 04:50:07;;;;;;;7.53;1.63;;;;;;;8.94;73.46;101125.63;4988590;28;20097;-51
2021/10/12 04:52:34;;;;;;;8.75;2.33;;;;;;;8.93;73.54;101129.94;4997811;28;20371;-53
2021/10/12 04:55:01;;;;;;;7.93;2.30;;;;;;;8.92;74.58;101120.44;4992941;28;20077;-52
2021/10/12 04:57:27;;;;;;;11.02;2.55;;;;;;;8.91;74.84;101116.09;4988443;28;20142;-50
2021/10/12 04:59:54;;;;;;;9.88;2.15;;;;;;;8.91;74.40;101118.69;4992232;28;20104;-50
2021/10/12 05:02:21;;;;;;;13.23;3.00;;;;;;;8.91;73.78;101118.69;4991453;28;20203;-49
2021/10/12 05:04:47;;;;;;;11.65;1.90;;;;;;;8.92;74.46;101120.44;4994424;28;20390;-51
2021/10/12 05:07:14;;;;;;;8.05;2.33;;;;;;;8.92;74.68;101114.41;4988269;28;20046;-50
2021/10/12 05:09:40;;;;;;;8.13;2.10;;;;;;;8.93;73.37;101117.03;4990726;28;20117;-49
2021/10/12 05:12:07;;;;;;;7.45;1.98;;;;;;;8.94;74.40;101112.72;4993773;28;20568;-53
2021/10/12 05:14:34;;;;;;;8.82;2.47;;;;;;;8.94;74.32;101113.59;4993320;28;20459;-52
2021/10/12 05:17:02;;;;;;;11.27;2.28;;;;;;;8.95;73.69;101115.34;4999231;28;20525;-50
2021/10/12 05:19:29;;;;;;;6.88;1.95;;;;;;;8.96;73.72;101106.75;4985194;28;20168;-51
2021/10/12 05:21:56;;;;;;;7.22;1.77;;;;;;;8.97;73.75;101108.50;4993008;28;20128;-51
2021/10/12 05:24:22;;;;;;;7.68;1.52;;;;;;;8.97;73.84;101100.75;4990305;28;20059;-51
2021/10/12 05:26:49;;;;;;;13.38;1.75;;;;;;;9.02;73.52;101105.13;4994418;28;20097;-49
2021/10/12 05:29:16;;;;;;;8.60;1.77;;;;;;;9.02;74.85;101097.38;4989724;28;20121;-51
2021/10/12 05:31:42;;;;;;;7.15;2.95;;;;;;;9.02;74.95;101084.47;4989535;28;20046;-50
2021/10/12 05:34:09;;;;;;;11.07;2.25;;;;;;;9.03;74.22;101096.53;4989267;28;20054;-51
2021/10/12 05:36:35;;;;;;;11.48;2.67;;;;;;;9.05;73.95;101094.88;4990478;28;20109;-48
2021/10/12 05:39:02;;;;;;;5.97;1.95;;;;;;;9.03;74.21;101097.41;4997775;28;20107;-50
2021/10/12 05:41:29;;;;;;;5.63;2.17;;;;;;;9.04;74.08;101098.28;4988946;28;20101;-50
2021/10/12 05:43:56;;;;;;;6.80;2.20;;;;;;;9.07;74.01;101088.00;4993732;28;20093;-51
2021/10/12 05:46:22;;;;;;;7.60;2.45;;;;;;;9.06;74.79;101081.09;4988300;28;20050;-52
2021/10/12 05:48:49;;;;;;;6.30;1.67;;;;;;;9.05;75.00;101090.56;4994429;28;20042;-52
2021/10/12 05:51:19;;;;;;;10.45;2.05;;;;;;;9.07;74.22;101088.00;4989190;28;20105;-52
2021/10/12 05:53:49;;;;;;;8.82;2.15;;;;;;;9.06;74.40;101081.09;4989533;28;20054;-48
2021/10/12 05:56:22;;;;;;;10.90;1.90;;;;;;;9.06;74.75;101087.16;4987449;28;20042;-48
2021/10/12 05:58:49;;;;;;;9.82;1.92;;;;;;;9.07;75.29;101082.84;4987201;28;20479;-49
2021/10/12 06:01:19;;;;;;;5.22;2.00;;;;;;;9.07;74.76;101080.25;4992281;28;20061;-49
2021/10/12 06:03:46;;;;;;;8.63;2.33;;;;;;;9.07;74.21;101083.72;4986441;28;20132;-51
2021/10/12 06:06:13;;;;;;;6.28;2.33;;;;;;;9.07;74.65;101088.00;4984053;28;20057;-49
2021/10/12 06:08:42;;;;;;;8.18;2.45;;;;;;;9.07;74.76;101085.41;4988585;28;20053;-49
2021/10/12 06:11:10;;;;;;;9.00;2.63;;;;;;;9.07;74.22;101093.16;4989669;28;20047;-49
2021/10/12 06:13:40;;;;;;;7.20;2.88;;;;;;;9.07;75.30;101082.84;4989067;28;20046;-50
2021/10/12 06:16:07;;;;;;;10.15;2.95;;;;;;;9.06;74.14;101078.50;4984869;28;20050;-50
2021/10/12 06:18:34;;;;;;;8.52;2.13;;;;;;;9.06;74.44;101073.34;4986661;28;20674;-50
2021/10/12 06:21:01;;;;;;;8.93;2.65;;;;;;;9.07;73.99;101072.50;4990342;28;20051;-51
2021/10/12 06:23:28;;;;;;;9.15;2.28;;;;;;;9.07;74.36;101082.84;4986166;28;20062;-51
2021/10/12 06:25:55;;;;;;;7.38;2.75;;;;;;;9.06;74.52;101081.09;4985589;28;20050;-49
2021/10/12 06:28:22;;;;;;;9.55;2.28;;;;;;;9.08;75.41;101079.41;4986772;28;20557;-51
2021/10/12 06:30:49;;;;;;;10.30;2.17;;;;;;;9.09;74.29;101081.16;4987513;28;20050;-50
2021/10/12 06:33:16;;;;;;;10.48;2.47;;;;;;;9.07;75.16;101082.84;4984245;28;20075;-50
2021/10/12 06:35:43;;;;;;;6.82;2.55;;;;;;;9.09;74.19;101076.84;4986673;28;20043;-50
2021/10/12 06:38:10;;;;;;;6.28;2.65;;;;;;;9.10;74.92;101077.72;4989441;28;20055;-48
2021/10/12 06:40:38;;;;;;;5.88;2.17;;;;;;;9.12;74.27;101086.41;4981665;28;20052;-50
2021/10/12 06:43:05;;;;;;;7.47;2.25;;;;;;;9.12;74.89;101086.41;4987144;28;20092;-49
2021/10/12 06:45:32;;;;;;;7.30;2.33;;;;;;;9.13;74.20;101088.13;4981078;28;20062;-50
2021/10/12 06:47:59;;;;;;;5.78;2.22;;;;;;;9.13;74.43;101083.81;4988271;28;20054;-50
2021/10/12 06:50:26;;;;;;;7.60;1.98;;;;;;;9.15;74.29;101086.44;4982699;28;20056;-49
2021/10/12 06:52:53;;;;;;;12.88;2.40;;;;;;;9.16;74.74;101083.03;4988259;28;20062;-51
2021/10/12 06:55:19;;;;;;;8.00;2.20;;;;;;;9.18;74.98;101081.34;4992121;28;20046;-51
2021/10/12 06:57:46;;;;;;;8.95;2.13;;;;;;;9.17;75.06;101084.78;4989117;28;20101;-49
2021/10/12 07:00:15;;;;;;;6.97;2.10;;;;;;;9.17;75.21;101084.78;4985110;28;20050;-49
2021/10/12 07:02:43;;;;;;;6.88;1.98;;;;;;;9.19;75.12;101083.06;4983158;28;20457;-49
2021/10/12 07:05:11;;;;;;;6.13;2.08;;;;;;;9.21;74.61;101085.69;4983469;28;20498;-49
2021/10/12 07:07:38;;;;;;;9.50;2.28;;;;;;;9.21;75.49;101081.41;4981789;28;20050;-50
2021/10/12 07:10:07;;;;;;;12.20;2.92;;;;;;;9.22;75.21;101077.97;4985519;28;20058;-49
2021/10/12 07:12:34;;;;;;;6.55;1.85;;;;;;;9.24;74.61;101076.28;4984425;28;20050;-49
2021/10/12 07:15:01;;;;;;;6.80;2.40;;;;;;;9.28;74.93;101077.22;4986050;28;20104;-49
2021/10/12 07:17:28;;;;;;;7.88;2.28;;;;;;;9.29;75.43;101086.69;4998201;28;20081;-49
2021/10/12 07:19:54;;;;;;;3.78;1.80;;;;;;;9.30;75.77;101087.59;4990235;28;20042;-49
2021/10/12 07:22:24;;;;;;;10.43;2.47;;;;;;;9.34;74.76;101089.38;4991301;28;20061;-52
2021/10/12 07:24:52;;;;;;;11.35;2.25;;;;;;;9.37;75.14;101092.91;4992902;28;20105;-49
2021/10/12 07:27:18;;;;;;;11.88;2.80;;;;;;;9.41;75.61;101093.84;4992094;28;20050;-49
2021/10/12 07:29:46;;;;;;;7.00;1.67;;;;;;;9.46;74.89;101089.59;4989793;28;20111;-49
2021/10/12 07:32:14;;;;;;;6.63;1.75;;;;;;;9.50;74.21;101096.59;4991859;28;20113;-50
2021/10/12 07:34:40;;;;;;;4.82;2.10;;;;;;;9.55;75.46;101107.03;4987229;28;20104;-49
2021/10/12 07:37:07;;;;;;;7.90;1.80;;;;;;;9.59;75.29;101092.44;4987334;28;20050;-49
2021/10/12 07:39:33;;;;;;;9.07;2.05;;;;;;;9.63;75.23;101094.25;4985831;28;20098;-50
2021/10/12 07:42:05;;;;;;;8.45;2.05;;;;;;;9.67;74.65;101088.28;4992162;28;20560;-50
2021/10/12 07:44:32;;;;;;;11.60;2.78;;;;;;;9.71;75.74;101087.50;4987688;28;20054;-49
2021/10/12 07:46:59;;;;;;;5.95;1.85;;;;;;;9.77;75.48;101081.56;4987282;28;20051;-51
2021/10/12 07:49:25;;;;;;;8.20;2.40;;;;;;;9.81;74.64;101079.88;4989425;28;20046;-49
2021/10/12 07:51:52;;;;;;;12.25;2.17;;;;;;;9.87;75.23;101082.56;4993603;28;20081;-51
2021/10/12 07:54:25;;;;;;;9.30;1.90;;;;;;;9.92;75.15;101080.94;4989344;28;20104;-49
2021/10/12 07:56:52;;;;;;;16.80;1.95;;;;;;;9.97;75.32;101079.28;4987786;28;20442;-49
2021/10/12 07:59:19;;;;;;;12.55;2.42;;;;;;;10.03;75.22;101076.78;4988384;28;20445;-49
2021/10/12 08:01:45;;;;;;;9.48;2.28;;;;;;;10.08;75.28;101081.19;4991670;28;20058;-49
2021/10/12 08:04:12;;;;;;;4.63;1.88;;;;;;;10.13;75.38;101084.69;4993179;28;20045;-51
2021/10/12 08:06:39;;;;;;;6.20;1.50;;;;;;;10.18;75.80;101088.25;4993298;28;20050;-49
2021/10/12 08:09:05;;;;;;;7.43;1.73;;;;;;;10.24;75.19;101088.31;4992387;28;20056;-53
2021/10/12 08:11:32;;;;;;;7.90;2.20;;;;;;;10.30;75.28;101087.56;4990963;28;20486;-51
2021/10/12 08:14:02;;;;;;;6.97;1.70;;;;;;;10.35;75.70;101074.69;4988293;28;20058;-50
2021/10/12 08:16:30;;;;;;;;;;;;;;;10.32;76.13;101085.00;4988917;28;20506;-52
2021/10/12 08:18:58;;;;;;;7.90;1.70;;;;;;;10.45;75.10;101086.06;4997295;28;19921;-50
2021/10/12 08:21:28;;;;;;;10.98;1.77;;;;;;;10.49;75.46;101086.16;4989669;28;20081;-50
2021/10/12 08:23:57;;;;;;;13.30;2.08;;;;;;;10.56;75.15;101078.44;4995365;28;20058;-50
2021/10/12 08:26:24;;;;;;;7.68;1.73;;;;;;;10.61;75.27;101067.31;4988693;28;20553;-50
2021/10/12 08:28:50;;;;;;;6.97;1.65;;;;;;;10.67;75.39;101072.56;4986246;28;20105;-50
2021/10/12 08:31:17;;;;;;;8.57;1.75;;;;;;;10.74;75.26;101089.06;4989406;28;20101;-52
2021/10/12 08:33:45;;;;;;;10.88;2.17;;;;;;;10.84;75.12;101089.22;4988006;28;20450;-50
2021/10/12 08:36:12;;;;;;;6.00;1.80;;;;;;;10.92;74.62;101103.13;4995145;28;20066;-50
2021/10/12 08:38:59;;;;;;;6.28;2.13;;;;;;;10.99;74.80;101099.78;4991958;28;20109;-50
2021/10/12 08:41:30;;;;;;;6.40;1.70;;;;;;;11.10;75.24;101096.41;4990860;28;20050;-50
2021/10/12 08:43:58;;;;;;;6.05;2.20;;;;;;;11.18;74.51;101089.63;4987046;28;20050;-50
2021/10/12 08:46:26;;;;;;;8.13;2.00;;;;;;;11.32;75.18;101098.41;4987428;28;20046;-50
2021/10/12 08:48:56;;;;;;;4.72;1.60;;;;;;;11.63;75.14;101097.00;4990219;28;20046;-53
2021/10/12 08:51:23;;;;;;;4.50;1.52;;;;;;;11.95;73.64;101093.81;4990125;28;20054;-51
2021/10/12 08:53:50;;;;;;;13.48;2.40;;;;;;;12.23;73.53;101091.50;4993592;28;20462;-51
2021/10/12 08:56:17;;;;;;;8.85;2.30;;;;;;;12.78;73.02;101079.69;4984513;28;20548;-50
2021/10/12 08:58:44;;;;;;;6.60;2.28;;;;;;;13.40;71.47;101080.75;4987633;28;20105;-51
2021/10/12 09:01:13;;;;;;;7.78;2.20;;;;;;;13.89;71.17;101087.78;4990368;28;20042;-53
2021/10/12 09:03:46;;;;;;;8.10;2.53;;;;;;;14.04;69.47;101089.50;4987511;28;20387;-53
2021/10/12 09:06:13;;;;;;;5.85;2.20;;;;;;;14.13;68.95;101086.91;4986846;28;20051;-53
2021/10/12 09:08:40;;;;;;;10.45;2.00;;;;;;;14.26;68.63;101085.13;4997265;28;20050;-52
2021/10/12 09:11:21;;;;;;;3.88;2.08;;;;;;;14.64;68.85;101083.34;4986664;28;20109;-50
2021/10/12 09:13:50;;;;;;;7.97;2.53;;;;;;;15.02;67.15;101083.19;4986073;28;20050;-51
2021/10/12 09:16:18;;;;;;;7.90;2.35;;;;;;;15.45;66.67;101078.63;4989232;28;20058;-51
2021/10/12 09:18:55;;;;;;;6.68;1.88;;;;;;;15.91;64.40;101080.88;4993517;28;20113;-53
2021/10/12 09:21:25;;;;;;;8.80;1.75;;;;;;;16.15;64.52;101086.81;4988811;28;20513;-51
2021/10/12 09:24:11;;;;;;;8.30;2.80;;;;;;;16.56;62.63;101081.19;4982249;28;20050;-52
2021/10/12 09:26:40;;;;;;;4.25;1.85;;;;;;;16.98;62.66;101092.91;4991179;28;20061;-54
2021/10/12 09:29:13;;;;;;;7.07;2.15;;;;;;;17.07;61.40;101092.81;4984601;28;20050;-51
2021/10/12 09:31:43;;;;;;;6.63;2.15;;;;;;;17.72;61.13;101091.88;4988439;28;20089;-52
2021/10/12 09:34:11;;;;;;;4.78;1.80;;;;;;;18.27;59.19;101092.75;4991062;28;20513;-49
2021/10/12 09:36:41;;;;;;;7.05;2.13;;;;;;;18.17;57.80;101087.66;4985679;28;20629;-54
2021/10/12 09:39:18;;;;;;;7.85;2.17;;;;;;;17.76;57.88;101083.97;4984871;28;20042;-48
2021/10/12 09:41:46;;;;;;;6.18;1.63;;;;;;;17.57;59.56;101076.41;4990821;28;20069;-48
2021/10/12 09:44:16;;;;;;;6.97;1.55;;;;;;;17.32;59.41;101071.50;4992328;28;20050;-52
2021/10/12 09:46:45;;;;;;;7.57;2.05;;;;;;;17.11;59.56;101067.44;4983436;28;20543;-50
2021/10/12 09:49:14;;;;;;;;;;;;;;;16.89;60.04;101079.03;4992154;28;20046;-49
2021/10/12 09:51:53;;;;;;;6.40;2.22;;;;;;;16.93;60.51;101074.63;4988179;28;19925;-49
2021/10/12 09:54:22;;;;;;;4.75;1.83;;;;;;;17.12;61.04;101064.81;4986123;28;20481;-48
2021/10/12 09:56:49;;;;;;;8.88;1.52;;;;;;;17.51;60.01;101066.00;4987761;28;20079;-49
2021/10/12 09:59:17;;;;;;;6.90;2.17;;;;;;;18.09;59.79;101073.81;4985308;28;20050;-51
2021/10/12 10:01:46;;;;;;;5.40;2.33;;;;;;;18.63;58.01;101070.19;4985452;28;20561;-49
2021/10/12 10:04:19;;;;;;;;;;;;;;;19.17;55.80;101071.72;4985439;28;20052;-49
2021/10/12 10:06:48;;;;;;;8.35;1.52;;;;;;;19.47;55.79;101078.06;4988664;28;19929;-49
2021/10/12 10:09:18;;;;;;;5.68;1.75;;;;;;;19.58;56.36;101076.91;4986401;28;20499;-50
2021/10/12 10:11:46;;;;;;;6.47;1.63;;;;;;;19.80;55.48;101079.03;4998343;28;20058;-53
2021/10/12 10:14:14;;;;;;;5.00;2.10;;;;;;;19.66;54.55;101082.88;4987035;28;20407;-50
2021/10/12 10:16:44;;;;;;;4.40;1.63;;;;;;;19.24;53.88;101079.44;4989042;28;20045;-51
2021/10/12 10:19:15;;;;;;;6.88;2.03;;;;;;;18.96;55.45;101082.66;4985944;28;20522;-50
2021/10/12 10:21:46;;;;;;;6.15;1.75;;;;;;;18.84;55.16;101082.88;4984798;28;20438;-51
2021/10/12 10:24:37;;;;;;;5.25;1.65;;;;;;;18.79;55.81;101084.75;4984996;28;20050;-52
2021/10/12 10:27:06;;;;;;;4.63;1.45;;;;;;;18.89;55.00;101086.31;4986769;28;20047;-50
2021/10/12 10:29:37;;;;;;;8.10;2.53;;;;;;;19.09;55.15;101079.78;4990392;28;20409;-52
2021/10/12 10:32:19;;;;;;;2.83;1.52;;;;;;;19.60;54.26;101072.50;4985008;28;20046;-52
2021/10/12 10:34:57;;;;;;;6.28;1.92;;;;;;;19.87;53.13;101075.34;4983955;28;20056;-52
2021/10/12 10:37:28;;;;;;;3.63;1.15;;;;;;;19.81;52.60;101075.50;4986877;28;20453;-51
2021/10/12 10:40:03;;;;;;;8.93;1.95;;;;;;;19.46;52.52;101078.09;4982780;28;20058;-52
2021/10/12 10:42:50;;;;;;;6.35;2.22;;;;;;;19.18;53.18;101070.84;4985662;28;20046;-52
2021/10/12 10:45:17;;;;;;;5.20;1.95;;;;;;;19.18;54.71;101069.06;4981785;28;20097;-52
2021/10/12 10:47:49;;;;;;;8.65;2.78;;;;;;;18.96;54.50;101066.03;4985369;28;20108;-51
2021/10/12 10:50:33;;;;;;;4.85;1.95;;;;;;;18.87;54.38;101072.34;4983412;28;20252;-54
2021/10/12 10:53:03;;;;;;;8.65;2.65;;;;;;;18.92;54.83;101070.50;4986152;28;20055;-50
2021/10/12 10:55:32;;;;;;;5.30;1.88;;;;;;;18.87;55.36;101072.34;4991270;28;20054;-53
2021/10/12 10:58:06;;;;;;;7.15;2.38;;;;;;;18.60;55.21;101065.00;4983004;28;20093;-51
2021/10/12 11:00:38;;;;;;;9.93;2.95;;;;;;;18.31;55.97;101078.69;4987981;28;20054;-52
2021/10/12 11:03:06;;;;;;;11.70;2.38;;;;;;;18.03;56.89;101087.88;4983986;28;20477;-52
2021/10/12 11:05:40;;;;;;;9.40;2.10;;;;;;;17.72;57.50;101076.16;4988784;28;20042;-50
2021/10/12 11:08:10;;;;;;;4.30;1.70;;;;;;;17.45;58.29;101072.19;4983651;28;20109;-51
2021/10/12 11:10:37;;;;;;;3.17;1.33;;;;;;;17.23;58.02;101076.91;4988974;28;20706;-50
2021/10/12 11:13:03;;;;;;;3.28;1.55;;;;;;;16.95;59.19;101078.09;4988257;28;20054;-52
2021/10/12 11:15:30;;;;;;;3.95;1.35;;;;;;;16.80;59.43;101068.69;4984122;28;20042;-54
2021/10/12 11:18:12;;;;;;;3.42;2.22;;;;;;;16.58;60.65;101067.19;4986017;28;20081;-53
2021/10/12 11:20:45;;;;;;;5.80;1.40;;;;;;;16.51;60.18;101067.31;4981103;28;20050;-52
2021/10/12 11:23:14;;;;;;;2.63;1.35;;;;;;;16.51;60.42;101062.06;4986497;28;20128;-50
2021/10/12 11:25:40;;;;;;;3.88;1.33;;;;;;;16.55;60.57;101063.78;4983828;28;20058;-53
2021/10/12 11:28:11;;;;;;;5.22;1.38;;;;;;;16.57;60.88;101061.97;4990872;28;20062;-50
2021/10/12 11:30:39;;;;;;;2.85;1.42;;;;;;;16.56;61.15;101062.88;4981125;28;20483;-52
2021/10/12 11:33:06;;;;;;;3.47;1.52;;;;;;;16.47;61.22;101062.97;4989193;28;20604;-49